Time;durP1;ratioP1;P1;durP2;ratioP2;P2;SDS_P1;SDS_P2;PMS_P1;PMS_P2;Temp;Humidity;BMP_temperature;BMP_pressure;BME280_temperature;BME280_humidity;BME280_pressure;Samples;Min_cycle;Max_cycle;Signal;HPM_P1;HPM_P2
2021/12/10 00:01:06;;;;;;;8.20;5.72;;;;;;;;;;4976495;28;20197;-82
2021/12/10 00:03:36;;;;;;;4.43;4.03;;;;;;;;;;4993421;28;20192;-82
2021/12/10 00:06:10;;;;;;;4.97;4.07;;;;;;;;;;4995315;28;20231;-82
2021/12/10 00:08:40;;;;;;;7.97;5.85;;;;;;;;;;4995640;28;20220;-82
2021/12/10 00:11:16;;;;;;;5.57;5.07;;;;;;;;;;4995645;28;20187;-82
2021/12/10 00:13:45;;;;;;;4.93;4.53;;;;;;;;;;4975956;28;20192;-82
2021/12/10 00:16:13;;;;;;;5.72;5.22;;;;;;;;;;4976147;28;20228;-82
2021/12/10 00:18:48;;;;;;;5.03;4.53;;;;;;;;;;4976080;28;20188;-82
2021/12/10 00:21:16;;;;;;;5.93;4.80;;;;;;;;;;4976516;28;20192;-82
2021/12/10 00:23:46;;;;;;;6.93;4.75;;;;;;;;;;4976171;28;20211;-82
2021/12/10 00:26:15;;;;;;;5.50;4.45;;;;;;;;;;4976220;28;20257;-82
2021/12/10 00:28:43;;;;;;;4.97;4.45;;;;;;;;;;4975251;28;20216;-82
2021/12/10 00:31:43;;;;;;;5.07;4.63;;;;;;;;;;4975963;28;20562;-82
2021/12/10 00:34:22;;;;;;;6.07;5.15;;;;;;;;;;4984121;28;20215;-82
2021/12/10 00:36:52;;;;;;;7.15;6.43;;;;;;;;;;4995507;28;20686;-82
2021/12/10 00:39:24;;;;;;;7.75;5.95;;;;;;;;;;4995307;28;20725;-81
2021/12/10 00:41:54;;;;;;;6.00;5.45;;;;;;;;;;4995904;28;20192;-82
2021/12/10 00:44:22;;;;;;;7.13;5.65;;;;;;;;;;4996006;28;20210;-82
2021/12/10 00:46:49;;;;;;;6.47;5.35;;;;;;;;;;4984947;28;20607;-82
2021/12/10 00:49:17;;;;;;;5.90;5.30;;;;;;;;;;4975833;28;20213;-82
2021/12/10 00:51:44;;;;;;;5.88;4.82;;;;;;;;;;4975807;28;20196;-82
2021/12/10 00:54:14;;;;;;;5.72;5.05;;;;;;;;;;4976363;28;20220;-82
2021/12/10 00:56:42;;;;;;;6.22;5.65;;;;;;;;;;4976244;28;20231;-82
2021/12/10 00:59:13;;;;;;;6.63;5.93;;;;;;;;;;4976172;28;20557;-82
2021/12/10 01:01:43;;;;;;;6.32;5.70;;;;;;;;;;4976529;28;20200;-82
2021/12/10 01:04:15;;;;;;;6.53;5.93;;;;;;;;;;4976251;28;20200;-82
2021/12/10 01:06:47;;;;;;;6.53;5.47;;;;;;;;;;4982928;28;20223;-82
2021/12/10 01:09:21;;;;;;;7.28;5.93;;;;;;;;;;4995256;28;20219;-82
2021/12/10 01:12:00;;;;;;;6.38;5.57;;;;;;;;;;4995594;28;20188;-81
2021/12/10 01:14:40;;;;;;;6.85;5.57;;;;;;;;;;4995125;28;20630;-81
2021/12/10 01:25:35;;;;;;;6.05;5.45;;;;;;;;;;4995281;28;20234;-81
2021/12/10 01:28:03;;;;;;;6.28;5.70;;;;;;;;;;4995411;28;20635;-82
2021/12/10 01:30:37;;;;;;;4.55;4.10;;;;;;;;;;4994915;28;20606;-82
2021/12/10 01:33:09;;;;;;;4.55;4.15;;;;;;;;;;4994986;28;20199;-82
2021/12/10 01:35:54;;;;;;;4.93;4.57;;;;;;;;;;4994765;28;20227;-81
2021/12/10 01:38:23;;;;;;;4.97;4.57;;;;;;;;;;4986489;28;20263;-82
2021/12/10 01:40:57;;;;;;;3.85;3.55;;;;;;;;;;4975036;28;20180;-82
2021/12/10 01:43:26;;;;;;;4.55;3.10;;;;;;;;;;4975355;28;20241;-81
2021/12/10 01:46:02;;;;;;;5.97;3.15;;;;;;;;;;4975398;28;20225;-82
2021/12/10 01:48:34;;;;;;;4.80;4.35;;;;;;;;;;4975682;28;20207;-81
2021/12/10 01:51:03;;;;;;;4.60;4.20;;;;;;;;;;4974933;28;20729;-81
2021/12/10 01:53:34;;;;;;;4.38;4.07;;;;;;;;;;4975339;28;20205;-82
2021/12/10 01:56:07;;;;;;;3.78;3.47;;;;;;;;;;4975142;28;20230;-81
2021/12/10 01:58:34;;;;;;;5.07;4.57;;;;;;;;;;4987620;28;20207;-82
2021/12/10 02:01:10;;;;;;;4.95;4.55;;;;;;;;;;4994501;28;20207;-82
2021/12/10 02:03:37;;;;;;;4.32;3.92;;;;;;;;;;4998119;28;20198;-82
2021/12/10 02:06:06;;;;;;;4.32;3.92;;;;;;;;;;4997993;28;20254;-82
2021/12/10 02:08:34;;;;;;;4.10;3.78;;;;;;;;;;4985437;28;20203;-82
2021/12/10 02:11:01;;;;;;;3.85;3.55;;;;;;;;;;4978272;28;20214;-82
2021/12/10 02:13:29;;;;;;;4.93;4.28;;;;;;;;;;4978408;28;20188;-81
2021/12/10 02:15:57;;;;;;;3.58;3.28;;;;;;;;;;4978560;28;20260;-82
2021/12/10 02:18:26;;;;;;;4.97;4.55;;;;;;;;;;4978698;28;20211;-82
2021/12/10 02:21:00;;;;;;;3.85;3.55;;;;;;;;;;4978437;28;20626;-81
2021/12/10 02:23:28;;;;;;;4.80;3.67;;;;;;;;;;4977864;28;20216;-82
2021/12/10 02:25:57;;;;;;;6.57;4.75;;;;;;;;;;4978482;28;20224;-82
2021/12/10 02:28:24;;;;;;;4.80;4.40;;;;;;;;;;4978716;28;20193;-82
2021/12/10 02:30:53;;;;;;;4.32;3.92;;;;;;;;;;4978486;28;20208;-82
2021/12/10 02:33:21;;;;;;;4.20;3.80;;;;;;;;;;4978337;28;20205;-82
2021/12/10 02:35:49;;;;;;;3.85;3.55;;;;;;;;;;4981946;28;20228;-82
2021/12/10 02:38:19;;;;;;;3.13;2.88;;;;;;;;;;4977871;28;20193;-81
2021/12/10 02:40:49;;;;;;;4.10;3.80;;;;;;;;;;4977553;28;20271;-82
2021/12/10 02:43:19;;;;;;;3.72;3.42;;;;;;;;;;4977610;28;20188;-81
2021/12/10 02:45:51;;;;;;;2.88;2.67;;;;;;;;;;4978073;28;20224;-82
2021/12/10 02:48:19;;;;;;;3.55;3.25;;;;;;;;;;4978207;28;20583;-82
2021/12/10 02:50:48;;;;;;;3.50;3.20;;;;;;;;;;4977821;28;20625;-82
2021/12/10 02:53:23;;;;;;;2.92;2.72;;;;;;;;;;4980734;28;20181;-82
2021/12/10 02:55:51;;;;;;;3.80;3.50;;;;;;;;;;4997592;28;20231;-82
2021/12/10 02:58:18;;;;;;;2.97;2.78;;;;;;;;;;4997267;28;20210;-82
2021/12/10 03:00:49;;;;;;;3.47;3.17;;;;;;;;;;4997314;28;20191;-82
2021/12/10 03:03:17;;;;;;;3.97;3.53;;;;;;;;;;4997554;28;20560;-82
2021/12/10 03:05:45;;;;;;;6.53;3.40;;;;;;;;;;4996870;28;20237;-82
2021/12/10 03:08:13;;;;;;;2.75;2.30;;;;;;;;;;4996877;28;20207;-82
2021/12/10 03:10:43;;;;;;;3.38;2.85;;;;;;;;;;4996442;28;20724;-82
2021/12/10 03:13:12;;;;;;;3.00;2.72;;;;;;;;;;4994023;28;20185;-83
2021/12/10 03:15:41;;;;;;;3.90;3.30;;;;;;;;;;4977671;28;20224;-82
2021/12/10 03:18:14;;;;;;;3.88;3.58;;;;;;;;;;4977576;28;20177;-82
2021/12/10 03:20:41;;;;;;;4.43;4.03;;;;;;;;;;4977625;28;20279;-83
2021/12/10 03:23:11;;;;;;;4.07;3.60;;;;;;;;;;4977631;28;20195;-82
2021/12/10 03:25:39;;;;;;;4.50;4.10;;;;;;;;;;4976937;28;20239;-82
2021/12/10 03:28:08;;;;;;;3.80;3.50;;;;;;;;;;4977013;28;20906;-82
2021/12/10 03:30:42;;;;;;;4.63;4.28;;;;;;;;;;4977379;28;20204;-81
2021/12/10 03:33:10;;;;;;;4.55;4.10;;;;;;;;;;4977035;28;20200;-81
2021/12/10 03:35:43;;;;;;;4.50;4.10;;;;;;;;;;4980616;28;20224;-81
2021/12/10 03:38:20;;;;;;;3.22;2.92;;;;;;;;;;4996551;28;20196;-80
2021/12/10 03:40:49;;;;;;;3.25;2.95;;;;;;;;;;4996866;28;20191;-81
2021/12/10 03:43:19;;;;;;;3.47;3.17;;;;;;;;;;4990470;28;20188;-81
2021/12/10 03:45:50;;;;;;;2.70;2.50;;;;;;;;;;4977295;28;20718;-81
2021/12/10 03:48:21;;;;;;;2.70;2.50;;;;;;;;;;4976975;28;20227;-81
2021/12/10 03:50:50;;;;;;;2.72;2.53;;;;;;;;;;4976791;28;20671;-81
2021/12/10 03:53:20;;;;;;;2.60;2.40;;;;;;;;;;4977654;28;20205;-82
2021/12/10 03:55:50;;;;;;;2.92;2.63;;;;;;;;;;4977661;28;20224;-82
2021/12/10 03:58:23;;;;;;;3.17;2.53;;;;;;;;;;4978036;28;20550;-82
2021/12/10 04:00:53;;;;;;;4.10;2.80;;;;;;;;;;4976994;28;20703;-81
2021/12/10 04:03:28;;;;;;;2.22;2.08;;;;;;;;;;4977422;28;20197;-82
2021/12/10 04:05:56;;;;;;;2.60;2.40;;;;;;;;;;4977345;28;20239;-81
2021/12/10 04:08:25;;;;;;;4.75;2.70;;;;;;;;;;4977425;28;20192;-82
2021/12/10 04:10:54;;;;;;;3.88;3.40;;;;;;;;;;4977210;28;20224;-82
2021/12/10 04:13:25;;;;;;;2.95;2.75;;;;;;;;;;4989361;28;20196;-82
2021/12/10 04:15:52;;;;;;;4.35;4.05;;;;;;;;;;4996872;28;20227;-82
2021/12/10 04:18:20;;;;;;;3.97;3.58;;;;;;;;;;4996495;28;20206;-82
2021/12/10 04:20:48;;;;;;;3.88;3.30;;;;;;;;;;4992746;28;20204;-82
2021/12/10 04:23:21;;;;;;;4.05;3.42;;;;;;;;;;4977125;28;20694;-82
2021/12/10 04:25:49;;;;;;;4.32;4.00;;;;;;;;;;4976888;28;20234;-82
2021/12/10 04:28:19;;;;;;;3.90;3.58;;;;;;;;;;4977092;28;20195;-82
2021/12/10 04:30:50;;;;;;;5.50;5.00;;;;;;;;;;4980883;28;20195;-82
2021/12/10 04:33:25;;;;;;;5.05;4.55;;;;;;;;;;4992382;28;20573;-82
2021/12/10 04:35:56;;;;;;;5.05;4.65;;;;;;;;;;4977143;28;20274;-82
2021/12/10 04:38:25;;;;;;;3.95;3.63;;;;;;;;;;4976955;28;20215;-82
2021/12/10 04:40:56;;;;;;;4.00;3.60;;;;;;;;;;4976975;28;20204;-82
2021/12/10 04:43:24;;;;;;;3.88;3.58;;;;;;;;;;4983212;28;20655;-82
2021/12/10 04:45:55;;;;;;;3.65;3.42;;;;;;;;;;4995427;28;20223;-82
2021/12/10 04:48:23;;;;;;;4.90;4.40;;;;;;;;;;4995849;28;20187;-82
2021/12/10 04:50:53;;;;;;;4.97;4.43;;;;;;;;;;4996096;28;20184;-82
2021/12/10 04:53:20;;;;;;;6.47;5.88;;;;;;;;;;4995772;28;20212;-82
2021/12/10 04:55:49;;;;;;;5.53;5.03;;;;;;;;;;4995059;28;20310;-82
2021/12/10 04:58:17;;;;;;;6.28;5.68;;;;;;;;;;4995362;28;20208;-82
2021/12/10 05:00:49;;;;;;;7.60;6.47;;;;;;;;;;4995377;28;20576;-82
2021/12/10 05:03:18;;;;;;;7.25;6.03;;;;;;;;;;4995518;28;20188;-83
2021/12/10 05:05:47;;;;;;;6.40;5.80;;;;;;;;;;4995070;28;20410;-82
2021/12/10 05:08:15;;;;;;;6.38;5.78;;;;;;;;;;4975514;28;20292;-82
2021/12/10 05:10:43;;;;;;;6.70;6.03;;;;;;;;;;4975573;28;20275;-82
2021/12/10 05:13:11;;;;;;;7.28;5.90;;;;;;;;;;4975615;28;20216;-82
2021/12/10 05:15:40;;;;;;;7.43;6.82;;;;;;;;;;4975869;28;20236;-82
2021/12/10 05:18:12;;;;;;;5.50;4.97;;;;;;;;;;4976091;28;20216;-82
2021/12/10 05:20:43;;;;;;;5.85;4.70;;;;;;;;;;4976761;28;20650;-82
2021/12/10 05:23:10;;;;;;;4.60;4.20;;;;;;;;;;4975808;28;20242;-81
2021/12/10 05:25:38;;;;;;;4.35;3.30;;;;;;;;;;4975729;28;20224;-82
2021/12/10 05:28:06;;;;;;;3.50;3.20;;;;;;;;;;4975735;28;20204;-82
2021/12/10 05:30:34;;;;;;;3.70;3.25;;;;;;;;;;4976413;28;20189;-82
2021/12/10 05:33:02;;;;;;;3.28;2.83;;;;;;;;;;4975722;28;20235;-82
2021/12/10 05:35:30;;;;;;;2.95;2.70;;;;;;;;;;4976145;28;20228;-82
2021/12/10 05:37:59;;;;;;;6.25;3.20;;;;;;;;;;4978438;28;20193;-81
2021/12/10 05:40:27;;;;;;;4.03;3.65;;;;;;;;;;4980072;28;20184;-82
2021/12/10 05:42:55;;;;;;;3.67;3.35;;;;;;;;;;4980373;28;20208;-82
2021/12/10 05:45:24;;;;;;;4.75;4.35;;;;;;;;;;4979520;28;20243;-82
2021/12/10 05:47:53;;;;;;;4.53;4.13;;;;;;;;;;4978753;28;20199;-82
2021/12/10 05:50:24;;;;;;;3.80;3.40;;;;;;;;;;4980081;28;20189;-82
2021/12/10 05:52:52;;;;;;;3.35;3.08;;;;;;;;;;4980160;28;20227;-82
2021/12/10 05:55:21;;;;;;;4.00;3.40;;;;;;;;;;4979545;28;20224;-82
2021/12/10 05:57:49;;;;;;;4.10;3.80;;;;;;;;;;4979500;28;20208;-82
2021/12/10 06:00:21;;;;;;;4.60;4.20;;;;;;;;;;4979167;28;20219;-82
2021/12/10 06:02:49;;;;;;;3.70;3.33;;;;;;;;;;4979469;28;20204;-82
2021/12/10 06:05:16;;;;;;;5.22;3.67;;;;;;;;;;4978568;28;20232;-82
2021/12/10 06:07:44;;;;;;;5.10;3.83;;;;;;;;;;4978949;28;20200;-82
2021/12/10 06:10:14;;;;;;;4.13;3.45;;;;;;;;;;4978584;28;20204;-82
2021/12/10 06:12:44;;;;;;;3.95;3.65;;;;;;;;;;4979157;28;20215;-83
2021/12/10 06:15:14;;;;;;;5.32;4.82;;;;;;;;;;4978637;28;20687;-82
2021/12/10 06:17:42;;;;;;;5.75;5.20;;;;;;;;;;4978858;28;20191;-83
2021/12/10 06:20:13;;;;;;;4.95;4.35;;;;;;;;;;4978339;28;20670;-82
2021/12/10 06:22:40;;;;;;;5.05;4.55;;;;;;;;;;4978523;28;20641;-83
2021/12/10 06:25:09;;;;;;;5.00;4.40;;;;;;;;;;4979386;28;20237;-83
2021/12/10 06:27:38;;;;;;;5.78;4.65;;;;;;;;;;4978808;28;20185;-83
2021/12/10 06:30:09;;;;;;;5.25;4.13;;;;;;;;;;4979396;28;20197;-83
2021/12/10 06:32:36;;;;;;;6.32;5.13;;;;;;;;;;4978957;28;20201;-82
2021/12/10 06:35:04;;;;;;;5.95;5.28;;;;;;;;;;4978403;28;20227;-82
2021/12/10 06:37:32;;;;;;;6.28;5.32;;;;;;;;;;4978436;28;20189;-83
2021/12/10 06:39:59;;;;;;;6.07;4.97;;;;;;;;;;4978316;28;20212;-83
2021/12/10 06:42:27;;;;;;;4.60;4.07;;;;;;;;;;4978286;28;20201;-83
2021/12/10 06:44:54;;;;;;;6.10;4.90;;;;;;;;;;4977762;28;20225;-82
2021/12/10 06:47:23;;;;;;;5.38;4.00;;;;;;;;;;4978663;28;20217;-82
2021/12/10 06:49:51;;;;;;;4.68;4.28;;;;;;;;;;4977346;28;20259;-83
2021/12/10 06:52:18;;;;;;;5.90;4.20;;;;;;;;;;4978730;28;20561;-82
2021/12/10 06:54:46;;;;;;;4.05;3.70;;;;;;;;;;4978077;28;20200;-83
2021/12/10 06:57:13;;;;;;;5.47;3.70;;;;;;;;;;4978920;28;20188;-82
2021/12/10 06:59:41;;;;;;;5.60;4.32;;;;;;;;;;4978627;28;20177;-82
2021/12/10 07:02:08;;;;;;;3.53;3.22;;;;;;;;;;4978236;28;20201;-83
2021/12/10 07:04:41;;;;;;;3.70;3.40;;;;;;;;;;4977606;28;20189;-82
2021/12/10 07:07:09;;;;;;;4.60;3.78;;;;;;;;;;4977690;28;20204;-82
2021/12/10 07:09:36;;;;;;;4.13;3.47;;;;;;;;;;4977437;28;20199;-83
2021/12/10 07:12:07;;;;;;;4.10;3.70;;;;;;;;;;4978140;28;20200;-83
2021/12/10 07:14:35;;;;;;;4.38;4.00;;;;;;;;;;4978680;28;20212;-81
2021/12/10 07:17:07;;;;;;;6.05;4.35;;;;;;;;;;4978524;28;20242;-83
2021/12/10 07:19:36;;;;;;;4.32;3.92;;;;;;;;;;4977976;28;20216;-82
2021/12/10 07:22:04;;;;;;;5.68;4.85;;;;;;;;;;4978163;28;20185;-83
2021/12/10 07:24:32;;;;;;;4.55;4.15;;;;;;;;;;4977745;28;20192;-83
2021/12/10 07:26:59;;;;;;;5.68;4.63;;;;;;;;;;4977808;28;20219;-83
2021/12/10 07:29:27;;;;;;;4.15;3.75;;;;;;;;;;4977820;28;20204;-82
2021/12/10 07:31:55;;;;;;;5.70;4.40;;;;;;;;;;4977444;28;20208;-82
2021/12/10 07:34:22;;;;;;;7.70;4.65;;;;;;;;;;4976844;28;20604;-82
2021/12/10 07:36:51;;;;;;;10.90;5.75;;;;;;;;;;4976703;28;20243;-82
2021/12/10 07:39:19;;;;;;;7.20;5.15;;;;;;;;;;4977110;28;20374;-82
2021/12/10 07:41:47;;;;;;;6.03;5.43;;;;;;;;;;4977080;28;20204;-82
2021/12/10 07:44:14;;;;;;;4.53;4.13;;;;;;;;;;4976707;28;20690;-82
2021/12/10 07:46:42;;;;;;;5.20;4.55;;;;;;;;;;4977061;28;20231;-82
2021/12/10 07:49:15;;;;;;;4.68;4.22;;;;;;;;;;4976820;28;20189;-83
2021/12/10 07:51:47;;;;;;;5.03;3.97;;;;;;;;;;4977442;28;20193;-83
2021/12/10 07:54:16;;;;;;;4.93;3.78;;;;;;;;;;4977736;28;20212;-83
2021/12/10 07:56:43;;;;;;;3.33;3.03;;;;;;;;;;4977444;28;20730;-83
2021/12/10 07:59:11;;;;;;;4.13;3.25;;;;;;;;;;4977867;28;20188;-83
2021/12/10 08:01:39;;;;;;;3.40;3.10;;;;;;;;;;4976990;28;20211;-83
2021/12/10 08:04:07;;;;;;;2.72;2.53;;;;;;;;;;4991475;28;20209;-83
2021/12/10 08:06:36;;;;;;;2.55;2.35;;;;;;;;;;4980642;28;20228;-83
2021/12/10 08:09:07;;;;;;;5.40;3.15;;;;;;;;;;4980095;28;20663;-83
2021/12/10 08:11:37;;;;;;;3.42;3.13;;;;;;;;;;4985223;28;20212;-81
2021/12/10 08:14:05;;;;;;;3.40;3.10;;;;;;;;;;4975064;28;20224;-84
2021/12/10 08:16:33;;;;;;;3.63;2.92;;;;;;;;;;4975178;28;20219;-82
2021/12/10 08:19:00;;;;;;;4.57;3.20;;;;;;;;;;4986570;28;20200;-82
2021/12/10 08:21:27;;;;;;;2.80;2.55;;;;;;;;;;4988656;28;20647;-82
2021/12/10 08:23:55;;;;;;;3.47;3.00;;;;;;;;;;4992290;28;20208;-83
2021/12/10 08:26:23;;;;;;;4.05;3.75;;;;;;;;;;4989220;28;20843;-82
2021/12/10 08:28:52;;;;;;;2.83;2.63;;;;;;;;;;4977074;28;20204;-82
2021/12/10 08:31:21;;;;;;;4.82;3.47;;;;;;;;;;4977709;28;20207;-83
2021/12/10 08:33:49;;;;;;;3.35;2.65;;;;;;;;;;4982014;28;20208;-84
2021/12/10 08:36:20;;;;;;;3.17;2.88;;;;;;;;;;4994654;28;20242;-81
2021/12/10 08:38:48;;;;;;;3.78;2.80;;;;;;;;;;4994427;28;20639;-82
2021/12/10 08:41:18;;;;;;;5.93;3.35;;;;;;;;;;4994750;28;20662;-83
2021/12/10 08:43:47;;;;;;;4.18;3.10;;;;;;;;;;4995212;28;20589;-83
2021/12/10 08:46:18;;;;;;;2.70;2.50;;;;;;;;;;4995765;28;20220;-83
2021/12/10 08:48:48;;;;;;;3.70;3.40;;;;;;;;;;4994462;28;20572;-83
2021/12/10 08:51:20;;;;;;;3.40;2.90;;;;;;;;;;4994278;28;20709;-82
2021/12/10 08:53:48;;;;;;;3.72;2.92;;;;;;;;;;4993457;28;20208;-81
2021/12/10 08:56:16;;;;;;;4.20;2.95;;;;;;;;;;4982953;28;20228;-81
2021/12/10 08:58:44;;;;;;;3.20;2.78;;;;;;;;;;4990138;28;20280;-81
2021/12/10 09:01:18;;;;;;;3.83;3.05;;;;;;;;;;4991843;28;20196;-81
2021/12/10 09:03:49;;;;;;;4.00;3.05;;;;;;;;;;4974950;28;20192;-81
2021/12/10 09:06:18;;;;;;;4.82;2.72;;;;;;;;;;4974276;28;20299;-81
2021/12/10 09:08:46;;;;;;;5.25;3.28;;;;;;;;;;4974140;28;20204;-82
2021/12/10 09:11:14;;;;;;;3.05;2.50;;;;;;;;;;4973737;28;20187;-81
2021/12/10 09:13:42;;;;;;;2.35;2.15;;;;;;;;;;4978909;28;20568;-82
2021/12/10 09:16:21;;;;;;;3.75;2.63;;;;;;;;;;4993678;28;20227;-82
2021/12/10 09:18:57;;;;;;;4.68;3.30;;;;;;;;;;4993530;28;20231;-83
2021/12/10 09:21:25;;;;;;;3.13;2.33;;;;;;;;;;4993604;28;20222;-82
2021/12/10 09:23:56;;;;;;;4.13;3.38;;;;;;;;;;4993098;28;20184;-83
2021/12/10 09:26:27;;;;;;;3.05;2.75;;;;;;;;;;4992783;28;20223;-82
2021/12/10 09:28:55;;;;;;;3.20;2.90;;;;;;;;;;4993224;28;20195;-83
2021/12/10 09:31:24;;;;;;;3.35;2.50;;;;;;;;;;4977647;28;20196;-82
2021/12/10 09:33:54;;;;;;;5.25;2.42;;;;;;;;;;4973631;28;20184;-84
2021/12/10 09:36:22;;;;;;;2.97;2.30;;;;;;;;;;4973380;28;20227;-84
2021/12/10 09:38:50;;;;;;;2.63;2.15;;;;;;;;;;4973702;28;20196;-85
2021/12/10 09:41:27;;;;;;;4.97;2.65;;;;;;;;;;4974798;28;20572;-84
2021/12/10 09:43:55;;;;;;;2.55;2.13;;;;;;;;;;4975617;28;20183;-82
2021/12/10 09:49:09;;;;;;;3.20;2.15;;;;;;;;;;4940809;28;20239;-84
2021/12/10 09:51:42;;;;;;;2.60;2.40;;;;;;;;;;4991647;28;20206;-84
2021/12/10 09:54:13;;;;;;;4.45;2.67;;;;;;;;;;5006064;28;20199;-84
2021/12/10 09:56:47;;;;;;;2.97;2.33;;;;;;;;;;4992961;28;20691;-85
2021/12/10 09:59:15;;;;;;;2.00;1.90;;;;;;;;;;4986886;28;20655;-85
2021/12/10 10:01:47;;;;;;;3.75;2.75;;;;;;;;;;4994715;28;20196;-85
2021/12/10 10:04:18;;;;;;;2.50;2.30;;;;;;;;;;4994509;28;20295;-83
2021/12/10 10:06:49;;;;;;;4.38;2.95;;;;;;;;;;4980493;28;20244;-84
2021/12/10 10:09:22;;;;;;;2.65;2.45;;;;;;;;;;4977000;28;20189;-84
2021/12/10 10:11:54;;;;;;;2.40;1.98;;;;;;;;;;4994465;28;20196;-84
2021/12/10 10:14:22;;;;;;;2.67;2.47;;;;;;;;;;4976141;28;20207;-84
2021/12/10 10:16:50;;;;;;;3.22;2.92;;;;;;;;;;4975175;28;20315;-85
2021/12/10 10:19:20;;;;;;;1.80;1.70;;;;;;;;;;4975758;28;20203;-85
2021/12/10 10:21:50;;;;;;;2.30;2.10;;;;;;;;;;4993179;28;20195;-84
2021/12/10 10:24:19;;;;;;;3.28;1.98;;;;;;;;;;4984528;28;20193;-84
2021/12/10 10:26:55;;;;;;;1.85;1.73;;;;;;;;;;4978492;28;20251;-84
2021/12/10 10:29:26;;;;;;;2.45;2.25;;;;;;;;;;4978311;28;20188;-85
2021/12/10 10:32:08;;;;;;;4.22;2.08;;;;;;;;;;4994448;28;20647;-85
2021/12/10 10:34:39;;;;;;;3.88;2.17;;;;;;;;;;4996292;28;20267;-86
2021/12/10 10:37:10;;;;;;;3.08;2.35;;;;;;;;;;4996503;28;20188;-85
2021/12/10 10:39:40;;;;;;;2.80;2.20;;;;;;;;;;4996456;28;20204;-87
2021/12/10 10:42:13;;;;;;;2.20;2.00;;;;;;;;;;4995965;28;20188;-87
2021/12/10 10:44:49;;;;;;;2.80;2.10;;;;;;;;;;4978190;28;20302;-86
2021/12/10 10:47:20;;;;;;;1.88;1.77;;;;;;;;;;4988932;28;20183;-85
2021/12/10 10:49:51;;;;;;;1.60;1.50;;;;;;;;;;5001435;28;20199;-85
2021/12/10 10:52:29;;;;;;;1.58;1.48;;;;;;;;;;4977444;28;20675;-85
2021/12/10 10:54:59;;;;;;;1.80;1.67;;;;;;;;;;4976998;28;20235;-84
2021/12/10 10:57:32;;;;;;;2.45;2.25;;;;;;;;;;4976749;28;20185;-83
2021/12/10 11:00:12;;;;;;;2.10;1.90;;;;;;;;;;4977411;28;20185;-84
2021/12/10 11:02:52;;;;;;;3.38;1.55;;;;;;;;;;4977143;28;20187;-83
2021/12/10 11:05:24;;;;;;;5.05;1.95;;;;;;;;;;4976146;28;20255;-84
2021/12/10 11:07:54;;;;;;;1.98;1.60;;;;;;;;;;4977309;28;20196;-83
2021/12/10 11:10:30;;;;;;;2.38;1.63;;;;;;;;;;4977210;28;20195;-84
2021/12/10 11:13:12;;;;;;;3.55;1.73;;;;;;;;;;4986913;28;20241;-87
2021/12/10 11:15:40;;;;;;;2.55;2.35;;;;;;;;;;4992205;28;20227;-84
2021/12/10 11:18:16;;;;;;;2.35;2.15;;;;;;;;;;4996456;28;20678;-83
2021/12/10 11:20:47;;;;;;;3.80;1.73;;;;;;;;;;4996752;28;20254;-83
2021/12/10 11:23:16;;;;;;;3.78;2.00;;;;;;;;;;4996292;28;20188;-83
2021/12/10 11:25:48;;;;;;;2.25;2.05;;;;;;;;;;4996099;28;20737;-84
2021/12/10 11:28:18;;;;;;;4.40;1.95;;;;;;;;;;4997440;28;20187;-82
2021/12/10 11:30:49;;;;;;;4.72;2.25;;;;;;;;;;4996873;28;20184;-84
2021/12/10 11:33:21;;;;;;;5.10;2.30;;;;;;;;;;4978676;28;20197;-83
2021/12/10 11:35:52;;;;;;;3.00;1.90;;;;;;;;;;4976160;28;20232;-84
2021/12/10 11:38:24;;;;;;;2.85;1.75;;;;;;;;;;4977054;28;20193;-84
2021/12/10 11:40:56;;;;;;;2.20;2.00;;;;;;;;;;4976520;28;20189;-83
2021/12/10 11:43:45;;;;;;;2.35;2.17;;;;;;;;;;4991725;28;20206;-86
2021/12/10 11:46:31;;;;;;;3.63;2.47;;;;;;;;;;4995883;28;20238;-84
2021/12/10 11:49:12;;;;;;;5.20;1.88;;;;;;;;;;4996035;28;20199;-84
2021/12/10 11:51:45;;;;;;;3.67;1.90;;;;;;;;;;4976514;28;20192;-84
2021/12/10 11:54:37;;;;;;;2.17;1.67;;;;;;;;;;4976179;28;20644;-83
2021/12/10 11:57:12;;;;;;;2.53;1.90;;;;;;;;;;4975208;28;20228;-84
2021/12/10 11:59:45;;;;;;;2.00;1.70;;;;;;;;;;4993824;28;20589;-82
2021/12/10 12:02:17;;;;;;;3.03;2.28;;;;;;;;;;4980614;28;20192;-83
2021/12/10 12:04:48;;;;;;;2.20;1.95;;;;;;;;;;4976118;28;20196;-84
2021/12/10 12:07:33;;;;;;;3.67;1.60;;;;;;;;;;4978732;28;20196;-82
2021/12/10 12:10:06;;;;;;;8.32;1.85;;;;;;;;;;4975968;28;20189;-83
2021/12/10 12:12:40;;;;;;;2.45;1.70;;;;;;;;;;4975443;28;20660;-82
2021/12/10 12:15:31;;;;;;;2.03;1.60;;;;;;;;;;4975248;28;20223;-82
2021/12/10 12:18:02;;;;;;;1.58;1.30;;;;;;;;;;4982496;28;20207;-82
2021/12/10 12:20:36;;;;;;;2.22;1.50;;;;;;;;;;4995425;28;20194;-82
2021/12/10 12:26:07;;;;;;;2.42;1.38;;;;;;;;;;4995540;28;20374;-82
2021/12/10 12:28:40;;;;;;;2.47;1.77;;;;;;;;;;4996743;28;20187;-85
2021/12/10 12:31:13;;;;;;;1.60;1.50;;;;;;;;;;4991408;28;20194;-85
2021/12/10 12:33:59;;;;;;;2.78;1.52;;;;;;;;;;4997039;28;20202;-84
2021/12/10 12:36:34;;;;;;;2.22;1.98;;;;;;;;;;4996891;28;20227;-84
2021/12/10 12:39:07;;;;;;;1.83;1.67;;;;;;;;;;4996441;28;20190;-83
2021/12/10 12:41:40;;;;;;;2.50;1.70;;;;;;;;;;4997129;28;20648;-81
2021/12/10 12:44:20;;;;;;;1.50;1.20;;;;;;;;;;5015293;28;20191;-83
2021/12/10 12:47:12;;;;;;;3.63;1.77;;;;;;;;;;5000758;28;20220;-85
2021/12/10 12:50:06;;;;;;;6.45;1.77;;;;;;;;;;4994035;28;20266;-84
2021/12/10 12:52:43;;;;;;;1.48;1.17;;;;;;;;;;4985258;28;20207;-81
2021/12/10 12:55:36;;;;;;;1.42;1.10;;;;;;;;;;4994252;28;20217;-82
2021/12/10 12:58:18;;;;;;;1.85;1.40;;;;;;;;;;4974855;28;20208;-83
2021/12/10 13:00:57;;;;;;;5.40;2.10;;;;;;;;;;4974722;28;20189;-83
2021/12/10 13:03:33;;;;;;;2.10;1.60;;;;;;;;;;4975252;28;20196;-84
2021/12/10 13:06:09;;;;;;;4.78;1.58;;;;;;;;;;4974636;28;20601;-84
2021/12/10 13:08:39;;;;;;;1.70;1.55;;;;;;;;;;4975180;28;20283;-83
2021/12/10 13:11:22;;;;;;;2.97;1.80;;;;;;;;;;4974984;28;20673;-83
2021/12/10 13:13:59;;;;;;;1.85;1.35;;;;;;;;;;4975294;28;20196;-84
2021/12/10 13:16:39;;;;;;;3.28;2.88;;;;;;;;;;4975495;28;20227;-84
2021/12/10 13:19:08;;;;;;;3.92;1.67;;;;;;;;;;4975084;28;20192;-82
2021/12/10 13:21:36;;;;;;;3.30;1.55;;;;;;;;;;4975062;28;20262;-83
2021/12/10 13:24:04;;;;;;;3.90;1.77;;;;;;;;;;4975052;28;20192;-85
2021/12/10 13:26:33;;;;;;;4.03;1.75;;;;;;;;;;4974804;28;20224;-82
2021/12/10 13:29:01;;;;;;;2.38;1.48;;;;;;;;;;4975215;28;20188;-83
2021/12/10 13:31:29;;;;;;;2.15;1.15;;;;;;;;;;4975239;28;20216;-84
2021/12/10 13:33:56;;;;;;;2.17;1.42;;;;;;;;;;4975805;28;20188;-84
2021/12/10 13:36:25;;;;;;;1.55;1.45;;;;;;;;;;4975959;28;20228;-82
2021/12/10 13:38:53;;;;;;;3.60;1.20;;;;;;;;;;4975121;28;20616;-83
2021/12/10 13:41:27;;;;;;;2.35;1.35;;;;;;;;;;4980490;28;20196;-84
2021/12/10 13:44:02;;;;;;;3.42;1.38;;;;;;;;;;5013987;28;20708;-82
2021/12/10 13:46:34;;;;;;;2.78;1.40;;;;;;;;;;5013382;28;20258;-82
2021/12/10 13:49:07;;;;;;;1.45;1.23;;;;;;;;;;5003895;28;20193;-82
2021/12/10 13:51:36;;;;;;;3.50;1.25;;;;;;;;;;4974180;28;20188;-83
2021/12/10 13:54:08;;;;;;;1.42;1.33;;;;;;;;;;4974215;28;20193;-82
2021/12/10 13:56:38;;;;;;;3.00;1.67;;;;;;;;;;4974200;28;20217;-83
2021/12/10 13:59:09;;;;;;;1.98;1.88;;;;;;;;;;4976916;28;20197;-82
2021/12/10 14:01:40;;;;;;;3.22;1.42;;;;;;;;;;4977728;28;20574;-83
2021/12/10 14:04:12;;;;;;;1.75;1.33;;;;;;;;;;4976819;28;20192;-82
2021/12/10 14:06:47;;;;;;;1.70;1.50;;;;;;;;;;4977558;28;20265;-82
2021/12/10 14:09:42;;;;;;;2.55;1.58;;;;;;;;;;4977846;28;20717;-82
2021/12/10 14:12:28;;;;;;;2.55;1.50;;;;;;;;;;4976124;28;20212;-82
2021/12/10 14:15:16;;;;;;;3.63;1.88;;;;;;;;;;4999357;28;20258;-82
2021/12/10 14:17:52;;;;;;;2.00;1.83;;;;;;;;;;4997096;28;20251;-82
2021/12/10 14:20:27;;;;;;;2.55;1.42;;;;;;;;;;4997035;28;20203;-82
2021/12/10 14:22:58;;;;;;;1.70;1.55;;;;;;;;;;4996478;28;20223;-82
2021/12/10 14:25:32;;;;;;;2.20;1.58;;;;;;;;;;4996849;28;20235;-82
2021/12/10 14:28:05;;;;;;;2.08;1.10;;;;;;;;;;4997544;28;20199;-82
2021/12/10 14:30:41;;;;;;;1.70;1.58;;;;;;;;;;4996457;28;20196;-82
2021/12/10 14:33:19;;;;;;;3.47;1.50;;;;;;;;;;4996710;28;20203;-82
2021/12/10 14:35:54;;;;;;;2.92;1.40;;;;;;;;;;4996628;28;20219;-82
2021/12/10 14:38:43;;;;;;;1.98;1.48;;;;;;;;;;4996517;28;20223;-82
2021/12/10 14:41:19;;;;;;;0.90;0.90;;;;;;;;;;4996661;28;20210;-82
2021/12/10 14:43:50;;;;;;;1.33;1.23;;;;;;;;;;5012256;28;20210;-82
2021/12/10 14:46:33;;;;;;;1.38;1.25;;;;;;;;;;5016014;28;20227;-80
2021/12/10 14:49:23;;;;;;;2.80;2.08;;;;;;;;;;5016506;28;20186;-81
2021/12/10 14:52:16;;;;;;;2.83;2.47;;;;;;;;;;5016647;28;20206;-81
2021/12/10 14:55:00;;;;;;;3.47;2.20;;;;;;;;;;4977252;28;20204;-81
2021/12/10 14:57:51;;;;;;;4.35;2.78;;;;;;;;;;4976991;28;20224;-81
2021/12/10 15:00:50;;;;;;;2.35;2.15;;;;;;;;;;4977464;28;20658;-82
2021/12/10 15:03:24;;;;;;;3.25;2.38;;;;;;;;;;4955581;29;20209;-82
2021/12/10 15:05:58;;;;;;;4.47;3.40;;;;;;;;;;4973298;28;20244;-81
2021/12/10 15:08:39;;;;;;;3.22;2.28;;;;;;;;;;4976751;28;20196;-81
2021/12/10 15:11:11;;;;;;;2.55;1.90;;;;;;;;;;4976245;28;20678;-81
2021/12/10 15:13:41;;;;;;;2.85;2.35;;;;;;;;;;4976946;28;20181;-82
2021/12/10 15:16:21;;;;;;;3.90;2.25;;;;;;;;;;4976228;28;20714;-81
2021/12/10 15:18:57;;;;;;;3.30;2.38;;;;;;;;;;4976341;28;20220;-81
2021/12/10 15:21:37;;;;;;;3.75;3.08;;;;;;;;;;4983141;28;20188;-81
2021/12/10 15:24:14;;;;;;;3.20;2.40;;;;;;;;;;4996345;28;20207;-82